Axtell, Texas
Current Conditions -  °F | °C
As of 6:53 PM on Sunday 25 Jan 2015 (Local Time) from KCNW Reporting Station
Clear Clear  
Wind Chill: 54°   Ceiling: Unl
Heat Index: 54°   Visibility: 10mi
Dew Point: 25°   Wind: 5mph
Humidity: 33%   Direction: 350°N
Pressure: 30.13"   Gusts: NA
Location:  31.66°N, 96.97°W
Report Text: KCNW 260053Z 35004KT 10SM SKC 12/M04 A3013
Loading
Personal Weather Stations






























Interactive Weather Map New forecast layout! Learn more

10-Day Weather Forecast

Advertisements
Track Severe Weather on mobile